createdAt,value
2023-05-12T00:00:34.471Z,9.457258
2023-05-12T00:01:34.463Z,9.457236
2023-05-12T00:02:34.659Z,9.457196
2023-05-12T00:03:34.609Z,9.457218
2023-05-12T00:04:34.462Z,9.457188
2023-05-12T00:05:34.408Z,9.457217
2023-05-12T00:06:34.405Z,9.457286
2023-05-12T00:07:34.425Z,9.457227
2023-05-12T00:08:34.444Z,9.457233
2023-05-12T00:09:34.397Z,9.457245
2023-05-12T00:10:34.377Z,9.457280
2023-05-12T00:11:34.361Z,9.457271
2023-05-12T00:12:34.355Z,9.457277
2023-05-12T00:13:34.416Z,9.457302
2023-05-12T00:14:34.345Z,9.457222
2023-05-12T00:15:34.339Z,9.457255
2023-05-12T00:16:34.387Z,9.457332
2023-05-12T00:17:34.343Z,9.457350
2023-05-12T00:18:34.332Z,9.457289
2023-05-12T00:19:34.267Z,9.457217
2023-05-12T00:20:34.260Z,9.457129
2023-05-12T00:21:34.253Z,9.457169
2023-05-12T00:22:34.244Z,9.457194
2023-05-12T00:23:34.261Z,9.457281
2023-05-12T00:24:34.235Z,9.457339
2023-05-12T00:25:34.230Z,9.457467
2023-05-12T00:26:34.203Z,9.457584
2023-05-12T00:27:34.209Z,9.457401
2023-05-12T00:28:34.223Z,9.457332
2023-05-12T00:29:34.183Z,9.457244
2023-05-12T00:30:34.162Z,9.457279
2023-05-12T00:31:34.180Z,9.457238
2023-05-12T00:32:34.202Z,9.457280
2023-05-12T00:33:34.148Z,9.457295
2023-05-12T00:34:34.123Z,9.457401
2023-05-12T00:35:34.118Z,9.457326
2023-05-12T00:36:34.104Z,9.457294
2023-05-12T00:37:34.127Z,9.457364
2023-05-12T00:38:34.109Z,9.457330
2023-05-12T00:39:34.086Z,9.457174
2023-05-12T00:40:34.076Z,9.457211
2023-05-12T00:41:34.109Z,9.457215
2023-05-12T00:42:34.055Z,9.457426
2023-05-12T00:43:34.043Z,9.457357
2023-05-12T00:44:34.022Z,9.457458
2023-05-12T00:45:34.063Z,9.457520
2023-05-12T00:46:34.032Z,9.457516
2023-05-12T00:47:34.042Z,9.457458
2023-05-12T00:48:33.982Z,9.457404
2023-05-12T00:49:34.000Z,9.457362
2023-05-12T00:50:33.956Z,9.457361
2023-05-12T00:51:33.977Z,9.457322
2023-05-12T00:52:33.941Z,9.457272
2023-05-12T00:53:47.712Z,9.457396
2023-05-12T00:54:35.927Z,9.457306
2023-05-12T00:55:33.933Z,9.457349
2023-05-12T00:56:33.924Z,9.457258
2023-05-12T00:57:33.883Z,9.457316
2023-05-12T00:58:33.882Z,9.457366
2023-05-12T00:59:33.874Z,9.457296
2023-05-12T01:00:33.871Z,9.457286
2023-05-12T01:01:34.026Z,9.457307
2023-05-12T01:02:33.920Z,9.457377
2023-05-12T01:03:33.975Z,9.457334
2023-05-12T01:04:33.836Z,9.457276
2023-05-12T01:05:33.852Z,9.457263
2023-05-12T01:06:33.811Z,9.457267
2023-05-12T01:07:33.827Z,9.457224
2023-05-12T01:08:33.785Z,9.457198
2023-05-12T01:09:33.792Z,9.457341
2023-05-12T01:10:33.789Z,9.457235
2023-05-12T01:11:33.757Z,9.457310
2023-05-12T01:12:33.735Z,9.457313
2023-05-12T01:13:33.746Z,9.457279
2023-05-12T01:14:33.732Z,9.457172
2023-05-12T01:15:33.711Z,9.457175
2023-05-12T01:16:33.710Z,9.457273
2023-05-12T01:17:33.836Z,9.457240
2023-05-12T01:18:33.763Z,9.457241
2023-05-12T01:19:33.690Z,9.457262
2023-05-12T01:20:33.663Z,9.457288
2023-05-12T01:21:33.654Z,9.457299
2023-05-12T01:22:33.734Z,9.457234
2023-05-12T01:23:33.644Z,9.457251
2023-05-12T01:24:33.661Z,9.457320
2023-05-12T01:25:33.618Z,9.457277
2023-05-12T01:26:33.605Z,9.457206
2023-05-12T01:27:33.604Z,9.457307
2023-05-12T01:28:33.613Z,9.457296
2023-05-12T01:29:33.572Z,9.457284
2023-05-12T01:30:33.569Z,9.457249
2023-05-12T01:31:33.578Z,9.457178
2023-05-12T01:32:33.605Z,9.457212
2023-05-12T01:33:33.560Z,9.457269
2023-05-12T01:34:33.529Z,9.457394
2023-05-12T01:35:33.535Z,9.457323
2023-05-12T01:36:33.500Z,9.457362
2023-05-12T01:37:34.507Z,9.457331
2023-05-12T01:38:33.511Z,9.457271
2023-05-12T01:39:33.475Z,9.457273
2023-05-12T01:40:33.471Z,9.457184
2023-05-12T01:41:33.454Z,9.457231
2023-05-12T01:42:33.466Z,9.457326
2023-05-12T01:43:33.429Z,9.457394
2023-05-12T01:44:33.425Z,9.457205
2023-05-12T01:45:33.435Z,9.457210
2023-05-12T01:46:33.433Z,9.457293
2023-05-12T01:47:33.420Z,9.457335
2023-05-12T01:48:33.379Z,9.457183
2023-05-12T01:49:34.393Z,9.457281
2023-05-12T01:50:33.376Z,9.457361
2023-05-12T01:51:33.393Z,9.457152
2023-05-12T01:52:33.353Z,9.457165
2023-05-12T01:53:33.328Z,9.457188
2023-05-12T01:54:33.320Z,9.457206
2023-05-12T01:55:33.313Z,9.457076
2023-05-12T01:56:33.316Z,9.457237
2023-05-12T01:57:33.292Z,9.457236
2023-05-12T01:58:33.282Z,9.457211
2023-05-12T01:59:33.266Z,9.457206
2023-05-12T02:00:33.268Z,9.457160
2023-05-12T02:01:33.304Z,9.457222
2023-05-12T02:02:33.283Z,9.457241
2023-05-12T02:03:33.353Z,9.457248
2023-05-12T02:04:33.247Z,9.457247
2023-05-12T02:05:33.228Z,9.457136
2023-05-12T02:06:33.218Z,9.457170
2023-05-12T02:07:33.188Z,9.457214
2023-05-12T02:08:33.176Z,9.457191
2023-05-12T02:09:33.170Z,9.457322
2023-05-12T02:10:33.171Z,9.457250
2023-05-12T02:11:33.153Z,9.457208
2023-05-12T02:12:33.143Z,9.457217
2023-05-12T02:13:33.145Z,9.457202
2023-05-12T02:14:33.120Z,9.457190
2023-05-12T02:15:33.129Z,9.457195
2023-05-12T02:16:33.110Z,9.457310
2023-05-12T02:17:33.125Z,9.457356
2023-05-12T02:18:33.154Z,9.457211
2023-05-12T02:19:33.106Z,9.457247
2023-05-12T02:20:33.101Z,9.457276
2023-05-12T02:21:33.042Z,9.457131
2023-05-12T02:22:33.026Z,9.457171
2023-05-12T02:23:33.039Z,9.457250
2023-05-12T02:24:33.046Z,9.457205
2023-05-12T02:25:33.016Z,9.457197
2023-05-12T02:26:32.998Z,9.457322
2023-05-12T02:27:33.024Z,9.457262
2023-05-12T02:28:32.974Z,9.457251
2023-05-12T02:29:32.972Z,9.457075
2023-05-12T02:30:32.977Z,9.457010
2023-05-12T02:31:33.027Z,9.457157
2023-05-12T02:32:32.986Z,9.457273
2023-05-12T02:33:32.932Z,9.457308
2023-05-12T02:34:32.951Z,9.457274
2023-05-12T02:35:32.905Z,9.457236
2023-05-12T02:36:32.915Z,9.457211
2023-05-12T02:37:32.908Z,9.457226
2023-05-12T02:38:32.933Z,9.457240
2023-05-12T02:39:32.941Z,9.457252
2023-05-12T02:40:32.878Z,9.457238
2023-05-12T02:41:32.862Z,9.457167
2023-05-12T02:42:32.850Z,9.457193
2023-05-12T02:43:32.856Z,9.457181
2023-05-12T02:44:32.828Z,9.457211
2023-05-12T02:45:32.867Z,9.457199
2023-05-12T02:46:32.805Z,9.457256
2023-05-12T02:47:32.889Z,9.457273
2023-05-12T02:48:32.799Z,9.457288
2023-05-12T02:49:32.812Z,9.457313
2023-05-12T02:50:32.767Z,9.457151
2023-05-12T02:51:32.776Z,9.457177
2023-05-12T02:52:32.766Z,9.457234
2023-05-12T02:53:32.751Z,9.457276
2023-05-12T02:54:32.731Z,9.457318
2023-05-12T02:55:32.712Z,9.457317
2023-05-12T02:56:34.055Z,9.457335
2023-05-12T02:57:33.780Z,9.457291
2023-05-12T02:58:32.689Z,9.457245
2023-05-12T02:59:32.682Z,9.457316
2023-05-12T03:00:32.674Z,9.457206
2023-05-12T03:01:32.705Z,9.457287
2023-05-12T03:02:32.707Z,9.457313
2023-05-12T03:03:32.722Z,9.457279
2023-05-12T03:04:32.633Z,9.457230
2023-05-12T03:05:32.629Z,9.457356
2023-05-12T03:06:32.621Z,9.457243
2023-05-12T03:07:32.602Z,9.457146
2023-05-12T03:08:32.589Z,9.457290
2023-05-12T03:09:32.583Z,9.457224
2023-05-12T03:10:32.621Z,9.457428
2023-05-12T03:11:32.584Z,9.457270
2023-05-12T03:12:32.552Z,9.457250
2023-05-12T03:13:32.537Z,9.457259
2023-05-12T03:14:32.540Z,9.457223
2023-05-12T03:15:32.547Z,9.457217
2023-05-12T03:16:32.558Z,9.457241
2023-05-12T03:17:32.521Z,9.457103
2023-05-12T03:18:32.554Z,9.457157
2023-05-12T03:19:32.488Z,9.457178
2023-05-12T03:20:32.549Z,9.457230
2023-05-12T03:21:32.467Z,9.457276
2023-05-12T03:22:32.462Z,9.457210
2023-05-12T03:23:32.435Z,9.457214
2023-05-12T03:24:32.491Z,9.457143
2023-05-12T03:25:32.424Z,9.457200
2023-05-12T03:26:32.422Z,9.457377
2023-05-12T03:27:32.407Z,9.457365
2023-05-12T03:28:32.409Z,9.457232
2023-05-12T03:29:32.419Z,9.457262
2023-05-12T03:30:32.416Z,9.457422
2023-05-12T03:31:32.407Z,9.457262
2023-05-12T03:32:32.380Z,9.457215
2023-05-12T03:33:32.357Z,9.457242
2023-05-12T03:34:32.351Z,9.457315
2023-05-12T03:35:32.336Z,9.457254
2023-05-12T03:36:32.306Z,9.457161
2023-05-12T03:37:32.304Z,9.457213
2023-05-12T03:38:32.345Z,9.457209
2023-05-12T03:39:32.291Z,9.457191
2023-05-12T03:40:32.261Z,9.457215
2023-05-12T03:41:32.254Z,9.457273
2023-05-12T03:42:32.237Z,9.457237
2023-05-12T03:43:32.249Z,9.457248
2023-05-12T03:44:32.222Z,9.457244
2023-05-12T03:45:32.220Z,9.457290
2023-05-12T03:46:32.247Z,9.457311
2023-05-12T03:47:32.254Z,9.457275
2023-05-12T03:48:32.197Z,9.457202
2023-05-12T03:49:32.179Z,9.457199
2023-05-12T03:50:32.165Z,9.457201
2023-05-12T03:51:32.144Z,9.457259
2023-05-12T03:52:32.195Z,9.457278
2023-05-12T03:53:32.176Z,9.457225
2023-05-12T03:54:32.130Z,9.457140
2023-05-12T03:55:32.128Z,9.457253
2023-05-12T03:56:33.131Z,9.457267
2023-05-12T03:57:32.106Z,9.457270
2023-05-12T03:58:32.083Z,9.457253
2023-05-12T03:59:32.078Z,9.457285
2023-05-12T04:00:32.058Z,9.457235
2023-05-12T04:01:32.050Z,9.457295
2023-05-12T04:02:32.157Z,9.457429
2023-05-12T04:03:32.090Z,9.457497
2023-05-12T04:04:32.145Z,9.457625
2023-05-12T04:05:32.007Z,9.457795
2023-05-12T04:06:32.024Z,9.457634
2023-05-12T04:07:32.013Z,9.457492
2023-05-12T04:08:31.982Z,9.457480
2023-05-12T04:09:31.983Z,9.457569
2023-05-12T04:10:31.956Z,9.457517
2023-05-12T04:11:32.022Z,9.457382
2023-05-12T04:12:31.965Z,9.457459
2023-05-12T04:13:31.927Z,9.457483
2023-05-12T04:14:42.360Z,9.457500
2023-05-12T04:15:33.913Z,9.457375
2023-05-12T04:16:31.972Z,9.457221
2023-05-12T04:17:31.916Z,9.457371
2023-05-12T04:18:31.954Z,9.457392
2023-05-12T04:19:31.883Z,9.457415
2023-05-12T04:20:31.890Z,9.457261
2023-05-12T04:21:31.879Z,9.457447
2023-05-12T04:22:31.839Z,9.457289
2023-05-12T04:23:31.826Z,9.457274
2023-05-12T04:24:31.820Z,9.457310
2023-05-12T04:25:31.824Z,9.457208
2023-05-12T04:26:31.801Z,9.457114
2023-05-12T04:27:31.811Z,9.457078
2023-05-12T04:28:31.777Z,9.457051
2023-05-12T04:29:31.833Z,9.457112
2023-05-12T04:30:31.775Z,9.457237
2023-05-12T04:31:31.783Z,9.457435
2023-05-12T04:32:31.780Z,9.457383
2023-05-12T04:33:31.728Z,9.457273
2023-05-12T04:34:31.753Z,9.457174
2023-05-12T04:35:31.735Z,9.457191
2023-05-12T04:37:04.105Z,9.457304
2023-05-12T04:37:31.720Z,9.457208
2023-05-12T04:38:31.677Z,9.457150
2023-05-12T04:39:31.712Z,9.457150
2023-05-12T04:40:34.105Z,9.457191
2023-05-12T04:41:32.665Z,9.457131
2023-05-12T04:42:31.643Z,9.457250
2023-05-12T04:44:32.644Z,9.457257
2023-05-12T04:45:31.637Z,9.457288
2023-05-12T04:46:31.695Z,9.457407
2023-05-12T04:47:31.704Z,9.457248
2023-05-12T04:48:31.620Z,9.457227
2023-05-12T04:49:31.599Z,9.457215
2023-05-12T04:50:31.587Z,9.457047
2023-05-12T04:51:31.580Z,9.456774
2023-05-12T04:52:31.549Z,9.456829
2023-05-12T04:53:31.587Z,9.457097
2023-05-12T04:54:31.533Z,9.457116
2023-05-12T04:55:31.536Z,9.457014
2023-05-12T04:56:31.532Z,9.457134
2023-05-12T04:57:31.507Z,9.457293
2023-05-12T04:58:31.530Z,9.457217
2023-05-12T04:59:31.485Z,9.457088
2023-05-12T05:00:31.484Z,9.457071
2023-05-12T05:01:31.542Z,9.457215
2023-05-12T05:02:31.536Z,9.457108
2023-05-12T05:03:31.649Z,9.457227
2023-05-12T05:04:31.450Z,9.456997
2023-05-12T05:05:31.441Z,9.457111
2023-05-12T05:06:31.444Z,9.457275
2023-05-12T05:07:31.438Z,9.457150
2023-05-12T05:08:31.390Z,9.457195
2023-05-12T05:09:31.385Z,9.457061
2023-05-12T05:10:31.377Z,9.457038
2023-05-12T05:11:31.366Z,9.457062
2023-05-12T05:12:31.372Z,9.457166
2023-05-12T05:13:31.367Z,9.457059
2023-05-12T05:14:31.350Z,9.457138
2023-05-12T05:15:31.432Z,9.457122
2023-05-12T05:16:31.381Z,9.457011
2023-05-12T05:17:31.342Z,9.456940
2023-05-12T05:18:31.320Z,9.457041
2023-05-12T05:20:32.602Z,9.457207
2023-05-12T05:21:32.275Z,9.457209
2023-05-12T05:22:31.257Z,9.457232
2023-05-12T05:23:31.242Z,9.457255
2023-05-12T05:24:31.225Z,9.457308
2023-05-12T05:25:31.233Z,9.457286
2023-05-12T05:26:31.231Z,9.457292
2023-05-12T05:27:31.210Z,9.457248
2023-05-12T05:28:31.201Z,9.457237
2023-05-12T05:29:31.196Z,9.457279
2023-05-12T05:30:31.210Z,9.457299
2023-05-12T05:31:31.222Z,9.457285
2023-05-12T05:32:31.207Z,9.457284
2023-05-12T05:33:31.135Z,9.457291
2023-05-12T05:34:31.190Z,9.457413
2023-05-12T05:35:31.132Z,9.457342
2023-05-12T05:36:31.678Z,9.457253
2023-05-12T05:37:32.125Z,9.457315
2023-05-12T05:38:31.095Z,9.457364
2023-05-12T05:39:31.082Z,9.457243
2023-05-12T05:40:41.355Z,9.457218
2023-05-12T05:41:33.059Z,9.457305
2023-05-12T05:42:31.054Z,9.457289
2023-05-12T05:43:31.036Z,9.457299
2023-05-12T05:44:31.041Z,9.457241
2023-05-12T05:45:31.033Z,9.457246
2023-05-12T05:46:31.065Z,9.457275
2023-05-12T05:47:31.023Z,9.457316
2023-05-12T05:48:30.999Z,9.457293
2023-05-12T05:49:31.038Z,9.457367
2023-05-12T05:50:31.000Z,9.457340
2023-05-12T05:51:30.953Z,9.457191
2023-05-12T05:52:30.957Z,9.457160
2023-05-12T05:53:30.959Z,9.457295
2023-05-12T05:54:30.974Z,9.457294
2023-05-12T05:55:30.912Z,9.457233
2023-05-12T05:56:30.916Z,9.457272
2023-05-12T05:57:30.892Z,9.457311
2023-05-12T05:58:30.886Z,9.457308
2023-05-12T05:59:30.902Z,9.457309
2023-05-12T06:00:30.853Z,9.457223
2023-05-12T06:01:30.875Z,9.457141
2023-05-12T06:02:30.921Z,9.457255
2023-05-12T06:03:30.918Z,9.457291
2023-05-12T06:04:30.849Z,9.457159
2023-05-12T06:05:30.817Z,9.457192
2023-05-12T06:06:30.805Z,9.457221
2023-05-12T06:07:30.792Z,9.457252
2023-05-12T06:08:30.807Z,9.457248
2023-05-12T06:09:30.769Z,9.457319
2023-05-12T06:10:30.776Z,9.457299
2023-05-12T06:11:30.765Z,9.457341
2023-05-12T06:12:30.738Z,9.457181
2023-05-12T06:13:30.753Z,9.457231
2023-05-12T06:14:30.733Z,9.457279
2023-05-12T06:15:30.705Z,9.457370
2023-05-12T06:16:30.753Z,9.457367
2023-05-12T06:17:32.012Z,9.457257
2023-05-12T06:18:31.701Z,9.457193
2023-05-12T06:19:30.664Z,9.457182
2023-05-12T06:20:30.675Z,9.457161
2023-05-12T06:21:30.650Z,9.457230
2023-05-12T06:22:30.662Z,9.457250
2023-05-12T06:23:30.660Z,9.457188
2023-05-12T06:24:30.638Z,9.457192
2023-05-12T06:25:30.605Z,9.457210
2023-05-12T06:26:30.594Z,9.457239
2023-05-12T06:27:30.652Z,9.457377
2023-05-12T06:28:30.598Z,9.457303
2023-05-12T06:29:30.567Z,9.457253
2023-05-12T06:30:30.565Z,9.457359
2023-05-12T06:31:30.580Z,9.457282
2023-05-12T06:32:30.560Z,9.457242
2023-05-12T06:33:30.528Z,9.457200
2023-05-12T06:34:30.549Z,9.457206
2023-05-12T06:35:30.505Z,9.457237
2023-05-12T06:36:30.514Z,9.457233
2023-05-12T06:37:30.520Z,9.457252
2023-05-12T06:38:30.480Z,9.457256
2023-05-12T06:39:30.463Z,9.457360
2023-05-12T06:40:30.464Z,9.457270
2023-05-12T06:41:30.479Z,9.457251
2023-05-12T06:42:30.446Z,9.457313
2023-05-12T06:43:30.444Z,9.457321
2023-05-12T06:44:30.429Z,9.457221
2023-05-12T06:45:30.411Z,9.457247
2023-05-12T06:46:30.486Z,9.457294
2023-05-12T06:47:30.437Z,9.457262
2023-05-12T06:48:30.390Z,9.457225
2023-05-12T06:49:30.377Z,9.457326
2023-05-12T06:50:30.383Z,9.457270
2023-05-12T06:51:30.368Z,9.457253
2023-05-12T06:52:30.339Z,9.457235
2023-05-12T06:53:30.337Z,9.457239
2023-05-12T06:54:30.334Z,9.457248
2023-05-12T06:55:30.337Z,9.457345
2023-05-12T06:56:30.306Z,9.457271
2023-05-12T06:57:30.295Z,9.457260
2023-05-12T06:58:30.287Z,9.457195
2023-05-12T06:59:30.292Z,9.457174
2023-05-12T07:00:30.299Z,9.457250
2023-05-12T07:01:30.285Z,9.457244
2023-05-12T07:02:30.286Z,9.457184
2023-05-12T07:03:30.255Z,9.457163
2023-05-12T07:04:30.257Z,9.457170
2023-05-12T07:05:30.256Z,9.457288
2023-05-12T07:06:30.196Z,9.457228
2023-05-12T07:07:30.205Z,9.457286
2023-05-12T07:08:30.190Z,9.457252
2023-05-12T07:09:30.208Z,9.457290
2023-05-12T07:10:30.157Z,9.457253
2023-05-12T07:11:30.207Z,9.457295
2023-05-12T07:12:30.151Z,9.457236
2023-05-12T07:13:30.153Z,9.457300
2023-05-12T07:14:30.140Z,9.457287
2023-05-12T07:15:32.483Z,9.457208
2023-05-12T07:16:31.109Z,9.457229
2023-05-12T07:17:30.121Z,9.457203
2023-05-12T07:18:30.152Z,9.457234
2023-05-12T07:19:30.089Z,9.457213
2023-05-12T07:20:30.063Z,9.457279
2023-05-12T07:21:30.110Z,9.457188
2023-05-12T07:22:30.042Z,9.457191
2023-05-12T07:23:30.075Z,9.457343
2023-05-12T07:24:30.042Z,9.457282
2023-05-12T07:25:30.055Z,9.457265
2023-05-12T07:26:30.009Z,9.457272
2023-05-12T07:27:29.995Z,9.457280
2023-05-12T07:28:29.994Z,9.457347
2023-05-12T07:29:29.972Z,9.457273
2023-05-12T07:30:29.977Z,9.457275
2023-05-12T07:31:30.059Z,9.457273
2023-05-12T07:32:29.970Z,9.457294
2023-05-12T07:33:29.962Z,9.457260
2023-05-12T07:34:29.960Z,9.457278
2023-05-12T07:35:29.929Z,9.457311
2023-05-12T07:36:29.921Z,9.457241
2023-05-12T07:37:29.922Z,9.457278
2023-05-12T07:38:29.895Z,9.457306
2023-05-12T07:39:29.903Z,9.457278
2023-05-12T07:40:29.877Z,9.457251
2023-05-12T07:41:29.954Z,9.457294
2023-05-12T07:42:29.882Z,9.457337
2023-05-12T07:43:29.843Z,9.457362
2023-05-12T07:44:29.833Z,9.457284
2023-05-12T07:45:29.825Z,9.457283
2023-05-12T07:46:29.867Z,9.457301
2023-05-12T07:47:29.848Z,9.457295
2023-05-12T07:48:29.792Z,9.457286
2023-05-12T07:49:29.781Z,9.457271
2023-05-12T07:50:29.777Z,9.457355
2023-05-12T07:51:29.784Z,9.457273
2023-05-12T07:52:29.766Z,9.457268
2023-05-12T07:53:29.744Z,9.457256
2023-05-12T07:54:29.755Z,9.457202
2023-05-12T07:55:29.733Z,9.457193
2023-05-12T07:56:29.745Z,9.457332
2023-05-12T07:57:29.715Z,9.457332
2023-05-12T07:58:29.715Z,9.457236
2023-05-12T07:59:29.697Z,9.457202
2023-05-12T08:00:29.732Z,9.457294
2023-05-12T08:01:29.711Z,9.457272
2023-05-12T08:02:29.724Z,9.457295
2023-05-12T08:03:29.749Z,9.457243
2023-05-12T08:04:29.713Z,9.457228
2023-05-12T08:05:29.645Z,9.457275
2023-05-12T08:06:29.663Z,9.457280
2023-05-12T08:07:29.625Z,9.457222
2023-05-12T08:08:29.607Z,9.457256
2023-05-12T08:09:29.597Z,9.457309
2023-05-12T08:10:29.642Z,9.457326
2023-05-12T08:11:29.608Z,9.457372
2023-05-12T08:12:29.571Z,9.457294
2023-05-12T08:13:29.553Z,9.457271
2023-05-12T08:14:29.581Z,9.457279
2023-05-12T08:15:29.740Z,9.457314
2023-05-12T08:16:29.544Z,9.457242
2023-05-12T08:17:29.647Z,9.457258
2023-05-12T08:18:29.599Z,9.457384
2023-05-12T08:19:29.509Z,9.457284
2023-05-12T08:20:29.482Z,9.457259
2023-05-12T08:21:29.472Z,9.457263
2023-05-12T08:22:29.484Z,9.457249
2023-05-12T08:23:29.449Z,9.457288
2023-05-12T08:24:29.464Z,9.457245
2023-05-12T08:25:29.622Z,9.457202
2023-05-12T08:26:31.353Z,9.457222
2023-05-12T08:27:29.406Z,9.457253
2023-05-12T08:28:29.616Z,9.457304
2023-05-12T08:29:29.409Z,9.457271
2023-05-12T08:30:29.400Z,9.457227
2023-05-12T08:31:29.440Z,9.457196
2023-05-12T08:32:29.386Z,9.457208
2023-05-12T08:33:29.366Z,9.457235
2023-05-12T08:34:29.410Z,9.457222
2023-05-12T08:35:29.344Z,9.457245
2023-05-12T08:36:29.333Z,9.457211
2023-05-12T08:37:29.318Z,9.457252
2023-05-12T08:38:29.320Z,9.457351
2023-05-12T08:39:29.307Z,9.457314
2023-05-12T08:40:29.284Z,9.457322
2023-05-12T08:41:29.299Z,9.457303
2023-05-12T08:42:29.283Z,9.457246
2023-05-12T08:43:29.267Z,9.457316
2023-05-12T08:44:29.351Z,9.457273
2023-05-12T08:45:29.271Z,9.457277
2023-05-12T08:46:29.247Z,9.457306
2023-05-12T08:47:29.452Z,9.457305
2023-05-12T08:48:29.231Z,9.457261
2023-05-12T08:49:29.194Z,9.457306
2023-05-12T08:50:29.201Z,9.457290
2023-05-12T08:51:29.171Z,9.457253
2023-05-12T08:52:29.191Z,9.457273
2023-05-12T08:53:29.180Z,9.457267
2023-05-12T08:54:29.141Z,9.457312
2023-05-12T08:55:33.532Z,9.457430
2023-05-12T08:57:30.175Z,9.457191
2023-05-12T08:58:40.410Z,9.457231
2023-05-12T08:59:31.096Z,9.457268
2023-05-12T09:00:29.145Z,9.457277
2023-05-12T09:01:29.154Z,9.457238
2023-05-12T09:02:37.740Z,9.457147
2023-05-12T09:03:31.140Z,9.457203
2023-05-12T09:04:29.096Z,9.457202
2023-05-12T09:05:29.083Z,9.457244
2023-05-12T09:06:29.070Z,9.457212
2023-05-12T09:07:29.028Z,9.457337
2023-05-12T09:08:29.025Z,9.457270
2023-05-12T09:09:29.014Z,9.457230
2023-05-12T09:11:30.017Z,9.457273
2023-05-12T09:12:28.973Z,9.457385
2023-05-12T09:13:28.968Z,9.457200
2023-05-12T09:14:28.983Z,9.457161
2023-05-12T09:15:28.965Z,9.457331
2023-05-12T09:16:28.977Z,9.457261
2023-05-12T09:17:28.959Z,9.457176
2023-05-12T09:18:28.957Z,9.457316
2023-05-12T09:19:28.976Z,9.457255
2023-05-12T09:20:31.849Z,9.457242
2023-05-12T09:21:29.896Z,9.457303
2023-05-12T09:22:28.895Z,9.457236
2023-05-12T09:23:28.876Z,9.457188
2023-05-12T09:24:28.889Z,9.457202
2023-05-12T09:25:28.861Z,9.457339
2023-05-12T09:26:28.918Z,9.457294
2023-05-12T09:27:28.847Z,9.457251
2023-05-12T09:28:28.823Z,9.457258
2023-05-12T09:29:31.910Z,9.457233
2023-05-12T09:30:29.811Z,9.457221
2023-05-12T09:31:28.834Z,9.457203
2023-05-12T09:32:28.935Z,9.457158
2023-05-12T09:33:28.793Z,9.457316
2023-05-12T09:34:28.784Z,9.457274
2023-05-12T09:35:28.786Z,9.457134
2023-05-12T09:36:28.752Z,9.457348
2023-05-12T09:37:28.747Z,9.457282
2023-05-12T09:38:28.764Z,9.457272
2023-05-12T09:39:28.748Z,9.457288
2023-05-12T09:40:28.718Z,9.457276
2023-05-12T09:41:28.710Z,9.457258
2023-05-12T09:42:28.698Z,9.457351
2023-05-12T09:43:28.716Z,9.457267
2023-05-12T09:44:28.673Z,9.457255
2023-05-12T09:45:28.676Z,9.457224
2023-05-12T09:46:28.771Z,9.457273
2023-05-12T09:47:28.680Z,9.457361
2023-05-12T09:48:28.683Z,9.457170
2023-05-12T09:49:28.636Z,9.457240
2023-05-12T09:50:32.465Z,9.457261
2023-05-12T09:51:30.616Z,9.457266
2023-05-12T09:52:28.596Z,9.457207
2023-05-12T09:53:28.645Z,9.457104
2023-05-12T09:54:29.599Z,9.457194
2023-05-12T09:55:28.572Z,9.457147
2023-05-12T09:56:28.556Z,9.457161
2023-05-12T09:57:28.578Z,9.457264
2023-05-12T09:58:28.566Z,9.457298
2023-05-12T09:59:28.529Z,9.457129
2023-05-12T10:00:43.263Z,9.457329
2023-05-12T10:01:30.557Z,9.457200
2023-05-12T10:02:28.623Z,9.457265
2023-05-12T10:03:28.488Z,9.457239
2023-05-12T10:04:28.519Z,9.457165
2023-05-12T10:05:28.473Z,9.457174
2023-05-12T10:06:28.507Z,9.457197
2023-05-12T10:07:28.583Z,9.457276
2023-05-12T10:08:28.444Z,9.457341
2023-05-12T10:09:28.433Z,9.457247
2023-05-12T10:10:28.438Z,9.457241
2023-05-12T10:11:28.459Z,9.457294
2023-05-12T10:12:28.443Z,9.457232
2023-05-12T10:13:28.391Z,9.457269
2023-05-12T10:14:28.379Z,9.457202
2023-05-12T10:15:28.362Z,9.457396
2023-05-12T10:16:28.419Z,9.457201
2023-05-12T10:17:28.410Z,9.457188
2023-05-12T10:18:28.390Z,9.457417
2023-05-12T10:19:28.334Z,9.457226
2023-05-12T10:20:28.328Z,9.457304
2023-05-12T10:21:28.323Z,9.457221
2023-05-12T10:22:28.288Z,9.457247
2023-05-12T10:23:28.429Z,9.457187
2023-05-12T10:24:29.309Z,9.457225
2023-05-12T10:25:28.276Z,9.457202
2023-05-12T10:26:28.258Z,9.457200
2023-05-12T10:27:28.256Z,9.457256
2023-05-12T10:28:28.255Z,9.457227
2023-05-12T10:29:28.247Z,9.457154
2023-05-12T10:30:28.219Z,9.457136
2023-05-12T10:31:28.266Z,9.457149
2023-05-12T10:32:28.218Z,9.457189
2023-05-12T10:33:28.220Z,9.457239
2023-05-12T10:34:28.198Z,9.457186
2023-05-12T10:35:28.192Z,9.457204
2023-05-12T10:53:49.249Z,9.456968
2023-05-12T10:54:42.349Z,9.457149
2023-05-12T10:55:40.583Z,9.457181
2023-05-12T10:56:40.564Z,9.457228
2023-05-12T10:57:40.543Z,9.457228
2023-05-12T10:58:40.963Z,9.457372
2023-05-12T10:59:40.575Z,9.457367
2023-05-12T11:00:40.612Z,9.457337
2023-05-12T11:01:41.403Z,9.457314
2023-05-12T11:02:40.905Z,9.457317
2023-05-12T11:03:41.213Z,9.457282
2023-05-12T11:04:40.386Z,9.457254
2023-05-12T11:05:40.470Z,9.457434
2023-05-12T11:06:40.912Z,9.457355
2023-05-12T11:07:40.632Z,9.457327
2023-05-12T11:08:40.420Z,9.457427
2023-05-12T11:09:48.026Z,9.457208
2023-05-12T11:10:42.301Z,9.457272
2023-05-12T11:11:40.523Z,9.457238
2023-05-12T11:12:40.174Z,9.457228
2023-05-12T11:13:40.147Z,9.457228
2023-05-12T11:14:40.139Z,9.457228
2023-05-12T11:15:40.129Z,9.457127
2023-05-12T11:16:40.238Z,9.457127
2023-05-12T11:17:40.180Z,9.457158
2023-05-12T11:18:40.119Z,9.457158
2023-05-12T11:19:41.087Z,9.457158
2023-05-12T11:20:40.080Z,9.457070
2023-05-12T11:21:40.089Z,9.457049
2023-05-12T11:22:40.099Z,9.457051
2023-05-12T11:23:40.078Z,9.457280
2023-05-12T11:24:40.044Z,9.457225
2023-05-12T11:25:42.126Z,9.457139
2023-05-12T11:26:40.042Z,9.457280
2023-05-12T11:27:40.005Z,9.457183
2023-05-12T11:28:39.999Z,9.457171
2023-05-12T11:29:39.994Z,9.457282
2023-05-12T11:30:39.988Z,9.457225
2023-05-12T11:31:39.974Z,9.457268
2023-05-12T11:32:39.966Z,9.457262
2023-05-12T11:33:39.942Z,9.457288
2023-05-12T11:34:39.937Z,9.457242
2023-05-12T11:35:39.998Z,9.457237
2023-05-12T11:36:39.918Z,9.457229
2023-05-12T11:37:39.915Z,9.457267
2023-05-12T11:38:39.900Z,9.457220
2023-05-12T11:39:39.910Z,9.457163
2023-05-12T11:40:39.908Z,9.457171
2023-05-12T11:41:39.861Z,9.457110
2023-05-12T11:42:39.885Z,9.457181
2023-05-12T11:43:39.848Z,9.457284
2023-05-12T11:44:39.886Z,9.457276
2023-05-12T11:45:39.863Z,9.457264
2023-05-12T11:46:39.827Z,9.457261
2023-05-12T11:47:39.836Z,9.457228
2023-05-12T11:48:39.834Z,9.457329
2023-05-12T11:49:39.816Z,9.457274
2023-05-12T11:50:39.832Z,9.457237
2023-05-12T11:51:39.772Z,9.457232
2023-05-12T11:52:39.760Z,9.457243
2023-05-12T11:53:39.758Z,9.457084
2023-05-12T11:54:39.771Z,9.457281
2023-05-12T11:55:39.735Z,9.457028
2023-05-12T11:56:39.715Z,9.457146
2023-05-12T11:57:39.721Z,9.457123
2023-05-12T11:58:39.734Z,9.457298
2023-05-12T11:59:39.711Z,9.457170
2023-05-12T12:00:39.680Z,9.457316
2023-05-12T12:01:39.668Z,9.457548
2023-05-12T12:02:39.797Z,9.457430
2023-05-12T12:03:39.778Z,9.457441
2023-05-12T12:04:40.336Z,9.457367
2023-05-12T12:05:39.632Z,9.457244